Aeroporto :
LOGIN :

Iscrizione | Disclaimer

   EN    FR    IT 

 










Sommario :    VFR   VFR Marginale   IFR   IFR Intensivo   IFR Molto Intensivo
Visibilità : 
Base nubi : 
>= 8 km
>= 3000ft
5 / 8 km
1000 / 3000 ft
1500m / 5 km
500 / 1000 ft
800 / 1500m
200 / 500 ft
< 800m
< 200 ft
Simboli :   Temporali  Nebbia  Neve Forte  Precipitazioni Forti  Vento > 20 kt
SIGMETs :   Varie  Temporali  Ghiacco  Turbolenza  Onda orograficha  Ceneri Vulcaniche






- Altitudine del aeroporto : 19 ft
- Codice IATA : LCY


EGLC - London City

ULTIMO METAR :
  • 170950Z AUTO VRB02KT 7000 NCD 06/05 Q1011

METARs OBSOLETI :
  • 170920Z AUTO VRB02KT 7000 NCD 05/04 Q1011
  • 170850Z AUTO VRB02KT 6000 NCD 05/04 Q1011
  • 170820Z AUTO VRB02KT 6000 NCD 05/04 Q1011
  • 170750Z AUTO VRB01KT 6000 NCD 05/04 Q1011
  • 170720Z AUTO 25003KT 6000 NCD 05/04 Q1010

TAF TAF EGLC
Valido dal 17 a 09 ore il 17 a 18 ore UTC


170805Z 1709/1718 04003KT 8000 FEW040
BECMG 1709/1711 9999
ATIS : +44 20 7646 0224



MetMap, La meteo Aeronautica in un colpo d'occhio ! - Copyright ORBIFLY Dicembre 2007 - Disclaimer

ORBIFLY MET'MAP TEAM :

Programmazione e sviluppo : Alexandra Zaïnal
Concezione e sviluppo : Baudouin d'Aumeries
Co-Programmazione e sviluppo : Marc-Olivier Méhu
Supporto tecnico e logistico : Manuel Goepfert
Aiuto per la traduzione : Arnaldo La Scala

Contatto : metmap@orbifly.com




FONTI E CREDITI :

   NOAA